Share

Arock, OR

Caldwell Industrial (KEUL) Elev 2428 ft | 43.64 °N, 116.64 °W | Change Station

Current weather conditions updated 22 minutes ago

Clear
Clear
46 °F
Feels Like 44 °F
N
6
Wind Variable Wind from South
Sunrise 7:01 AM
Sunset 8:37 PM
Moon Waning Gibbous

Today is forecast to be Much Warmer than yesterday.

Pressure 30.00 in
Visibility 10.0 miles
Clouds Clear
Windchill 44 °F
Dew Point 27 °F
Humidity 46%
Rainfall 0.00 in
Snow Depth Not available.
UV 2 out of 16
Pollen 10.60 out of 12
Air Quality Not available.
Flu Activity Sporadic
METAR KEUL 191515Z AUTO 17005KT 10SM CLR 08/M03 A3000 RMK AO1

More Conditions Fewer Conditions

Pressure 30.00 in
Visibility 10.0 miles
Clouds Clear
Windchill 44 °F
Dew Point 27 °F
Humidity 46%
Rainfall 0.00 in
Snow Depth Not available.
UV 2 out of 16
Pollen 10.60 out of 12
Air Quality Not available.
Flu Activity Sporadic
METAR KEUL 191515Z AUTO 17005KT 10SM CLR 08/M03 A3000 RMK AO1

More Conditions Fewer Conditions

10-Day Weather Forecast

Almanac

Astronomy

Apr. 19, 2014 Rise Set
Actual Time 7:01 AM MDT 8:37 PM MDT
Civil Twilight 6:31 AM MDT 9:06 PM MDT
Nautical Twilight 5:55 AM MDT 9:43 PM MDT
Astronomical Twilight 5:17 AM MDT 10:21 PM MDT
Moon 12:29 AM MDT 10:21 AM MDT
Length of Visible Light 14h 35m
Length of Day
13h 35m
Tomorrow will be 2m 45s longer.
Waning Gibbous, 79% of the Moon is Illuminated
Today
Waning Gibbous
Apr 22
Last Quarter
Apr 29
New
May 6
First Quarter
May 14
Full

Today's Extremes

State Highs State Lows

Community

  • A Glorious Morning
    A Glorious Morning
  • Tender Rays Of Hope
    Tender Rays Of Hope
  • Bleeding Hearts
    Bleeding Hearts
  • Sunset Silhouettes
    Sunset Silhouettes
  • FL sunset Perico Isle
    FL sunset Perico Isle

WunderPhotos

Upload Photos

1,702,767 photos uploaded!

WunderBlogs® & News

Nearby

Snow Depth

Station Depth Elevation
Fish Creek 49 in 7900 ft
Silvies 0 in 6900 ft
Rock Springs 0 in 5550 ft
Lake Creek R.S. 0 in 5200 ft
Blue Mountain Spring 15 in 5900 ft

Coastal Water Temperatures

Place Temperature
No Stations Reporting

Earthquake Activity

City Distance Mag. Time & Date
No recent earthquake activity has been reported nearby.
Minimum magnitude displayed is 2.5.

Nearby Weather Stations

Station Location Temp. Windchill Dew Point Humidity Wind Precip. Elev Updated Type
RAWS GRASSY MOUNTAIN OR, Jordan Valley, OR 45 °F 39 °F 27 °F 48% ESE  at  12 mph 0.00 in / hr 4560 ft 8:24 AM MDT MADIS
MesoWest JORDAN VALLEY CWMA , Jordan Valley, OR 39 °F 39 °F 27 °F 62% East  at  1 mph 0.00 in / hr 4507 ft 8:00 AM MDT MADIS

Show More Stations Show Fewer Stations

What do you think?

We're not finished. Please let us know what you like, what you don't like, and what you are still missing.